Terminal Aerodrome Forecast
Issued by NWS

Home | Current Version | Previous Version | Text Only | Print | Product List | Glossary Off
Versions: 1 2 3 4 5 6 7 8 9 10 11 12 13 14 15 16 17

000
FTUS43 KGRB 291700
TAFMTW
TAF
KMTW 291720Z 2918/3018 19018G27KT 6SM -RA BKN025 OVC040
     FM291900 19020G30KT P6SM OVC018
     FM292200 23019G28KT P6SM OVC020
      TEMPO 2922/2924 4SM -RA BR OVC015
     FM300000 23017G25KT P6SM SCT020 BKN040
     FM300300 28014KT P6SM SCT050
     FM300900 28010KT P6SM SKC=

USA.gov is the U.S. government's official web portal to all federal, state and local government web resources and services.